createdAt,value
2024-05-09T00:00:58.064Z,10.37
2024-05-09T00:01:58.052Z,10.36
2024-05-09T00:02:58.002Z,10.35
2024-05-09T00:03:58.035Z,10.34
2024-05-09T00:04:58.078Z,10.34
2024-05-09T00:05:57.966Z,10.34
2024-05-09T00:06:57.943Z,10.35
2024-05-09T00:07:57.917Z,10.36
2024-05-09T00:08:57.922Z,10.37
2024-05-09T00:09:57.912Z,10.39
2024-05-09T00:10:58.013Z,10.40
2024-05-09T00:11:58.007Z,10.41
2024-05-09T00:12:57.890Z,10.42
2024-05-09T00:13:57.885Z,10.43
2024-05-09T00:14:57.855Z,10.43
2024-05-09T00:15:57.833Z,10.44
2024-05-09T00:16:57.842Z,10.45
2024-05-09T00:17:58.006Z,10.45
2024-05-09T00:18:58.183Z,10.46
2024-05-09T00:19:57.823Z,10.45
2024-05-09T00:20:57.878Z,10.44
2024-05-09T00:21:57.794Z,10.43
2024-05-09T00:22:57.799Z,10.43
2024-05-09T00:23:57.736Z,10.42
2024-05-09T00:24:57.749Z,10.41
2024-05-09T00:25:57.806Z,10.41
2024-05-09T00:26:57.724Z,10.40
2024-05-09T00:27:57.801Z,10.40
2024-05-09T00:28:57.697Z,10.40
2024-05-09T00:29:57.688Z,10.41
2024-05-09T00:30:57.664Z,10.41
2024-05-09T00:31:57.733Z,10.41
2024-05-09T00:32:57.892Z,10.41
2024-05-09T00:33:57.945Z,10.41
2024-05-09T00:34:57.728Z,10.41
2024-05-09T00:35:57.592Z,10.41
2024-05-09T00:36:57.606Z,10.40
2024-05-09T00:37:57.782Z,10.39
2024-05-09T00:38:57.584Z,10.39
2024-05-09T00:39:57.564Z,10.39
2024-05-09T00:40:57.626Z,10.40
2024-05-09T00:41:57.536Z,10.40
2024-05-09T00:42:57.567Z,10.41
2024-05-09T00:43:57.574Z,10.42
2024-05-09T00:44:57.523Z,10.43
2024-05-09T00:45:57.512Z,10.44
2024-05-09T00:46:57.518Z,10.45
2024-05-09T00:47:57.674Z,10.47
2024-05-09T00:48:57.540Z,10.49
2024-05-09T00:49:57.514Z,10.49
2024-05-09T00:50:57.469Z,10.49
2024-05-09T00:51:57.447Z,10.49
2024-05-09T00:52:57.460Z,10.49
2024-05-09T00:53:57.458Z,10.48
2024-05-09T00:54:57.402Z,10.47
2024-05-09T00:55:57.411Z,10.47
2024-05-09T00:56:57.367Z,10.45
2024-05-09T00:57:57.383Z,10.41
2024-05-09T00:58:57.429Z,10.37
2024-05-09T00:59:57.330Z,10.33
2024-05-09T01:00:57.376Z,10.29
2024-05-09T01:01:57.454Z,10.26
2024-05-09T01:02:57.773Z,10.23
2024-05-09T01:03:57.439Z,10.21
2024-05-09T01:04:57.391Z,10.18
2024-05-09T01:05:57.449Z,10.15
2024-05-09T01:06:57.265Z,10.13
2024-05-09T01:07:57.292Z,10.11
2024-05-09T01:08:57.265Z,10.10
2024-05-09T01:09:57.263Z,10.10
2024-05-09T01:10:57.332Z,10.09
2024-05-09T01:11:57.366Z,10.08
2024-05-09T01:12:57.219Z,10.08
2024-05-09T01:13:57.271Z,10.07
2024-05-09T01:14:57.180Z,10.06
2024-05-09T01:15:57.189Z,10.05
2024-05-09T01:16:57.263Z,10.05
2024-05-09T01:17:57.559Z,10.05
2024-05-09T01:18:57.346Z,10.05
2024-05-09T01:19:57.155Z,10.05
2024-05-09T01:20:57.129Z,10.05
2024-05-09T01:21:57.152Z,10.05
2024-05-09T01:22:57.134Z,10.05
2024-05-09T01:23:57.089Z,10.04
2024-05-09T01:24:57.080Z,10.03
2024-05-09T01:25:57.079Z,10.03
2024-05-09T01:26:57.092Z,10.03
2024-05-09T01:27:57.098Z,10.04
2024-05-09T01:28:57.158Z,10.05
2024-05-09T01:29:57.019Z,10.07
2024-05-09T01:30:56.998Z,10.09
2024-05-09T01:31:57.100Z,10.11
2024-05-09T01:32:57.223Z,10.12
2024-05-09T01:33:57.105Z,10.14
2024-05-09T01:34:56.981Z,10.16
2024-05-09T01:35:56.977Z,10.17
2024-05-09T01:36:56.933Z,10.19
2024-05-09T01:37:57.005Z,10.20
2024-05-09T01:38:56.932Z,10.22
2024-05-09T01:39:56.914Z,10.24
2024-05-09T01:40:56.943Z,10.27
2024-05-09T01:41:56.887Z,10.30
2024-05-09T01:42:56.908Z,10.33
2024-05-09T01:43:56.942Z,10.35
2024-05-09T01:44:56.867Z,10.37
2024-05-09T01:45:56.844Z,10.38
2024-05-09T01:46:56.853Z,10.39
2024-05-09T01:47:57.090Z,10.38
2024-05-09T01:48:56.931Z,10.37
2024-05-09T01:49:56.897Z,10.36
2024-05-09T01:50:56.837Z,10.35
2024-05-09T01:51:56.767Z,10.34
2024-05-09T01:52:56.810Z,10.33
2024-05-09T01:53:56.765Z,10.31
2024-05-09T01:54:56.823Z,10.30
2024-05-09T01:55:56.726Z,10.29
2024-05-09T01:56:56.754Z,10.28
2024-05-09T01:57:56.734Z,10.28
2024-05-09T01:58:56.734Z,10.28
2024-05-09T01:59:56.689Z,10.28
2024-05-09T02:00:56.739Z,10.28
2024-05-09T02:01:57.884Z,10.28
2024-05-09T02:02:56.910Z,10.29
2024-05-09T02:03:56.767Z,10.29
2024-05-09T02:04:56.710Z,10.30
2024-05-09T02:05:56.649Z,10.31
2024-05-09T02:06:56.618Z,10.32
2024-05-09T02:07:56.740Z,10.32
2024-05-09T02:08:56.612Z,10.32
2024-05-09T02:09:56.607Z,10.30
2024-05-09T02:10:56.613Z,10.28
2024-05-09T02:11:56.818Z,10.26
2024-05-09T02:12:56.564Z,10.24
2024-05-09T02:13:56.574Z,10.22
2024-05-09T02:14:56.530Z,10.21
2024-05-09T02:15:56.541Z,10.20
2024-05-09T02:16:56.550Z,10.20
2024-05-09T02:17:56.743Z,10.19
2024-05-09T02:18:56.574Z,10.18
2024-05-09T02:19:56.491Z,10.17
2024-05-09T02:20:56.475Z,10.16
2024-05-09T02:21:56.435Z,10.15
2024-05-09T02:22:56.505Z,10.13
2024-05-09T02:23:56.430Z,10.12
2024-05-09T02:24:56.406Z,10.11
2024-05-09T02:25:56.457Z,10.10
2024-05-09T02:26:56.395Z,10.10
2024-05-09T02:27:56.464Z,10.08
2024-05-09T02:28:56.394Z,10.07
2024-05-09T02:29:56.413Z,10.07
2024-05-09T02:30:56.352Z,10.07
2024-05-09T02:31:56.391Z,10.07
2024-05-09T02:32:56.416Z,10.07
2024-05-09T02:33:56.615Z,10.07
2024-05-09T02:34:56.345Z,10.07
2024-05-09T02:35:56.313Z,10.08
2024-05-09T02:36:56.401Z,10.08
2024-05-09T02:37:56.369Z,10.08
2024-05-09T02:38:56.282Z,10.07
2024-05-09T02:39:56.245Z,10.07
2024-05-09T02:40:56.269Z,10.07
2024-05-09T02:41:56.229Z,10.06
2024-05-09T02:42:56.216Z,10.06
2024-05-09T02:43:56.261Z,10.05
2024-05-09T02:44:56.195Z,10.05
2024-05-09T02:45:56.177Z,10.05
2024-05-09T02:46:56.174Z,10.04
2024-05-09T02:47:56.404Z,10.03
2024-05-09T02:48:56.277Z,10.02
2024-05-09T02:49:56.250Z,10.00
2024-05-09T02:50:56.138Z,9.98
2024-05-09T02:51:56.135Z,9.96
2024-05-09T02:52:56.132Z,9.94
2024-05-09T02:53:56.128Z,9.91
2024-05-09T02:54:56.091Z,9.89
2024-05-09T02:55:56.125Z,9.87
2024-05-09T02:56:56.079Z,9.86
2024-05-09T02:57:56.036Z,9.84
2024-05-09T02:58:56.063Z,9.83
2024-05-09T02:59:56.034Z,9.82
2024-05-09T03:00:56.124Z,9.80
2024-05-09T03:01:56.115Z,9.78
2024-05-09T03:02:56.160Z,9.76
2024-05-09T03:03:56.160Z,9.74
2024-05-09T03:04:56.129Z,9.72
2024-05-09T03:05:55.978Z,9.70
2024-05-09T03:06:55.949Z,9.68
2024-05-09T03:07:55.989Z,9.67
2024-05-09T03:08:55.964Z,9.67
2024-05-09T03:09:55.975Z,9.67
2024-05-09T03:10:55.920Z,9.66
2024-05-09T03:11:56.022Z,9.66
2024-05-09T03:12:55.911Z,9.65
2024-05-09T03:13:55.905Z,9.64
2024-05-09T03:14:55.897Z,9.63
2024-05-09T03:15:55.845Z,9.61
2024-05-09T03:16:55.966Z,9.59
2024-05-09T03:17:56.006Z,9.57
2024-05-09T03:18:55.860Z,9.55
2024-05-09T03:19:55.878Z,9.53
2024-05-09T03:20:55.858Z,9.51
2024-05-09T03:21:55.798Z,9.49
2024-05-09T03:22:57.009Z,9.46
2024-05-09T03:23:55.772Z,9.43
2024-05-09T03:24:55.769Z,9.39
2024-05-09T03:25:55.816Z,9.37
2024-05-09T03:26:55.728Z,9.34
2024-05-09T03:27:55.777Z,9.32
2024-05-09T03:28:55.735Z,9.30
2024-05-09T03:29:55.769Z,9.28
2024-05-09T03:30:55.696Z,9.26
2024-05-09T03:31:55.726Z,9.25
2024-05-09T03:32:55.830Z,9.24
2024-05-09T03:33:55.871Z,9.22
2024-05-09T03:34:55.759Z,9.21
2024-05-09T03:35:55.657Z,9.20
2024-05-09T03:36:55.629Z,9.19
2024-05-09T03:37:55.639Z,9.19
2024-05-09T03:38:55.589Z,9.18
2024-05-09T03:39:55.598Z,9.18
2024-05-09T03:40:55.660Z,9.18
2024-05-09T03:41:55.566Z,9.17
2024-05-09T03:42:55.605Z,9.16
2024-05-09T03:43:55.576Z,9.16
2024-05-09T03:44:55.572Z,9.16
2024-05-09T03:45:55.543Z,9.16
2024-05-09T03:46:55.567Z,9.16
2024-05-09T03:47:55.828Z,9.15
2024-05-09T03:48:55.541Z,9.14
2024-05-09T03:49:55.537Z,9.13
2024-05-09T03:50:55.586Z,9.13
2024-05-09T03:51:55.453Z,9.12
2024-05-09T03:52:55.521Z,9.11
2024-05-09T03:53:55.479Z,9.10
2024-05-09T03:54:55.449Z,9.10
2024-05-09T03:55:55.430Z,9.10
2024-05-09T03:56:55.392Z,9.10
2024-05-09T03:57:55.397Z,9.10
2024-05-09T03:58:55.460Z,9.10
2024-05-09T03:59:55.419Z,9.11
2024-05-09T04:00:55.412Z,9.11
2024-05-09T04:01:55.611Z,9.11
2024-05-09T04:02:55.535Z,9.10
2024-05-09T04:03:55.437Z,9.10
2024-05-09T04:04:55.401Z,9.09
2024-05-09T04:05:55.329Z,9.09
2024-05-09T04:06:55.278Z,9.09
2024-05-09T04:07:55.330Z,9.10
2024-05-09T04:08:55.379Z,9.12
2024-05-09T04:09:55.463Z,9.14
2024-05-09T04:10:55.323Z,9.17
2024-05-09T04:11:55.367Z,9.19
2024-05-09T04:12:55.258Z,9.22
2024-05-09T04:13:55.283Z,9.23
2024-05-09T04:14:55.195Z,9.25
2024-05-09T04:15:55.280Z,9.27
2024-05-09T04:16:55.285Z,9.30
2024-05-09T04:17:55.536Z,9.32
2024-05-09T04:18:55.246Z,9.34
2024-05-09T04:19:55.160Z,9.35
2024-05-09T04:20:55.159Z,9.37
2024-05-09T04:21:55.129Z,9.39
2024-05-09T04:22:55.235Z,9.40
2024-05-09T04:23:55.128Z,9.40
2024-05-09T04:24:55.109Z,9.39
2024-05-09T04:25:55.167Z,9.37
2024-05-09T04:26:55.083Z,9.35
2024-05-09T04:27:55.083Z,9.33
2024-05-09T04:28:55.092Z,9.30
2024-05-09T04:29:55.030Z,9.27
2024-05-09T04:30:55.053Z,9.23
2024-05-09T04:31:55.136Z,9.21
2024-05-09T04:32:55.172Z,9.19
2024-05-09T04:33:55.185Z,9.16
2024-05-09T04:34:55.164Z,9.15
2024-05-09T04:35:54.978Z,9.13
2024-05-09T04:36:54.950Z,9.12
2024-05-09T04:37:55.000Z,9.11
2024-05-09T04:38:54.941Z,9.10
2024-05-09T04:39:54.916Z,9.09
2024-05-09T04:40:55.006Z,9.08
2024-05-09T04:41:54.923Z,9.07
2024-05-09T04:42:54.964Z,9.05
2024-05-09T04:43:54.922Z,9.04
2024-05-09T04:44:56.516Z,9.03
2024-05-09T04:45:54.870Z,9.02
2024-05-09T04:46:54.977Z,9.02
2024-05-09T04:47:55.024Z,9.01
2024-05-09T04:48:54.857Z,9.02
2024-05-09T04:49:54.863Z,9.01
2024-05-09T04:50:54.869Z,9.01
2024-05-09T04:51:54.833Z,9.01
2024-05-09T04:52:54.829Z,9.01
2024-05-09T04:53:54.793Z,9.01
2024-05-09T04:54:56.158Z,9.02
2024-05-09T04:55:54.841Z,9.02
2024-05-09T04:56:54.751Z,9.03
2024-05-09T04:57:54.747Z,9.04
2024-05-09T04:58:54.755Z,9.05
2024-05-09T04:59:54.707Z,9.06
2024-05-09T05:00:54.755Z,9.07
2024-05-09T05:01:54.776Z,9.08
2024-05-09T05:02:54.817Z,9.09
2024-05-09T05:03:56.151Z,9.09
2024-05-09T05:04:54.994Z,9.10
2024-05-09T05:05:54.926Z,9.11
2024-05-09T05:06:54.637Z,9.13
2024-05-09T05:07:54.656Z,9.13
2024-05-09T05:08:54.623Z,9.14
2024-05-09T05:09:54.626Z,9.15
2024-05-09T05:10:54.718Z,9.15
2024-05-09T05:11:54.735Z,9.16
2024-05-09T05:12:54.560Z,9.16
2024-05-09T05:13:54.574Z,9.17
2024-05-09T05:14:54.554Z,9.18
2024-05-09T05:15:54.552Z,9.19
2024-05-09T05:16:54.594Z,9.19
2024-05-09T05:17:54.582Z,9.20
2024-05-09T05:18:54.647Z,9.20
2024-05-09T05:19:54.710Z,9.21
2024-05-09T05:20:54.516Z,9.22
2024-05-09T05:21:54.524Z,9.23
2024-05-09T05:22:54.477Z,9.24
2024-05-09T05:23:54.449Z,9.26
2024-05-09T05:24:54.448Z,9.28
2024-05-09T05:25:54.942Z,9.31
2024-05-09T05:26:54.488Z,9.34
2024-05-09T05:27:55.102Z,9.38
2024-05-09T05:28:54.546Z,9.41
2024-05-09T05:29:54.424Z,9.45
2024-05-09T05:30:54.367Z,9.49
2024-05-09T05:31:54.447Z,9.53
2024-05-09T05:32:54.592Z,9.56
2024-05-09T05:33:54.386Z,9.59
2024-05-09T05:34:54.349Z,9.62
2024-05-09T05:35:54.334Z,9.65
2024-05-09T05:36:54.316Z,9.68
2024-05-09T05:37:54.370Z,9.71
2024-05-09T05:38:54.347Z,9.75
2024-05-09T05:39:54.263Z,9.78
2024-05-09T05:40:54.334Z,9.81
2024-05-09T05:41:54.293Z,9.85
2024-05-09T05:42:54.255Z,9.89
2024-05-09T05:43:54.274Z,9.93
2024-05-09T05:44:54.232Z,9.98
2024-05-09T05:45:54.206Z,10.02
2024-05-09T05:46:54.285Z,10.06
2024-05-09T05:47:54.574Z,10.10
2024-05-09T05:48:54.245Z,10.13
2024-05-09T05:49:54.186Z,10.17
2024-05-09T05:50:54.171Z,10.22
2024-05-09T05:51:54.165Z,10.27
2024-05-09T05:52:54.217Z,10.32
2024-05-09T05:53:54.121Z,10.37
2024-05-09T05:54:54.112Z,10.43
2024-05-09T05:55:54.134Z,10.48
2024-05-09T05:56:54.113Z,10.53
2024-05-09T05:57:54.079Z,10.58
2024-05-09T05:58:54.103Z,10.63
2024-05-09T05:59:54.046Z,10.67
2024-05-09T06:00:54.177Z,10.71
2024-05-09T06:01:54.107Z,10.75
2024-05-09T06:02:54.097Z,10.78
2024-05-09T06:03:54.208Z,10.82
2024-05-09T06:04:54.052Z,10.86
2024-05-09T06:05:54.061Z,10.90
2024-05-09T06:06:53.994Z,10.94
2024-05-09T06:07:54.034Z,10.98
2024-05-09T06:08:54.077Z,11.03
2024-05-09T06:09:53.974Z,11.07
2024-05-09T06:10:54.016Z,11.12
2024-05-09T06:11:54.007Z,11.17
2024-05-09T06:12:53.914Z,11.22
2024-05-09T06:13:53.985Z,11.26
2024-05-09T06:14:53.879Z,11.31
2024-05-09T06:15:53.924Z,11.36
2024-05-09T06:16:56.934Z,11.41
2024-05-09T06:17:54.134Z,11.47
2024-05-09T06:18:54.146Z,11.52
2024-05-09T06:19:54.138Z,11.58
2024-05-09T06:20:53.888Z,11.64
2024-05-09T06:21:53.810Z,11.70
2024-05-09T06:22:53.865Z,11.77
2024-05-09T06:23:53.844Z,11.84
2024-05-09T06:24:53.878Z,11.90
2024-05-09T06:25:53.794Z,11.97
2024-05-09T06:26:53.820Z,12.02
2024-05-09T06:27:53.790Z,12.06
2024-05-09T06:28:53.790Z,12.10
2024-05-09T06:29:53.751Z,12.14
2024-05-09T06:30:53.717Z,12.17
2024-05-09T06:31:55.405Z,12.19
2024-05-09T06:32:53.762Z,12.22
2024-05-09T06:33:53.863Z,12.24
2024-05-09T06:34:53.755Z,12.26
2024-05-09T06:35:53.650Z,12.28
2024-05-09T06:36:53.682Z,12.30
2024-05-09T06:37:53.645Z,12.33
2024-05-09T06:38:53.636Z,12.35
2024-05-09T06:39:53.642Z,12.37
2024-05-09T06:40:53.629Z,12.39
2024-05-09T06:41:53.598Z,12.41
2024-05-09T06:42:53.582Z,12.43
2024-05-09T06:43:53.663Z,12.46
2024-05-09T06:44:53.629Z,12.48
2024-05-09T06:45:53.609Z,12.50
2024-05-09T06:46:55.695Z,12.52
2024-05-09T06:47:53.740Z,12.55
2024-05-09T06:48:54.078Z,12.57
2024-05-09T06:49:53.603Z,12.60
2024-05-09T06:50:53.534Z,12.62
2024-05-09T06:51:53.514Z,12.65
2024-05-09T06:52:53.529Z,12.68
2024-05-09T06:53:53.483Z,12.70
2024-05-09T06:54:53.461Z,12.73
2024-05-09T06:55:53.572Z,12.77
2024-05-09T06:56:53.432Z,12.80
2024-05-09T06:57:53.412Z,12.84
2024-05-09T06:58:53.480Z,12.88
2024-05-09T06:59:53.515Z,12.91
2024-05-09T07:00:53.483Z,12.94
2024-05-09T07:01:53.368Z,12.97
2024-05-09T07:02:53.488Z,13.00
2024-05-09T07:03:53.492Z,13.03
2024-05-09T07:04:53.501Z,13.07
2024-05-09T07:05:53.467Z,13.11
2024-05-09T07:06:53.385Z,13.15
2024-05-09T07:07:53.449Z,13.19
2024-05-09T07:08:53.356Z,13.24
2024-05-09T07:09:53.323Z,13.28
2024-05-09T07:10:53.416Z,13.32
2024-05-09T07:11:53.413Z,13.36
2024-05-09T07:12:53.285Z,13.41
2024-05-09T07:13:53.282Z,13.45
2024-05-09T07:14:53.312Z,13.50
2024-05-09T07:15:53.236Z,13.53
2024-05-09T07:16:53.414Z,13.56
2024-05-09T07:17:53.368Z,13.59
2024-05-09T07:18:53.355Z,13.62
2024-05-09T07:19:53.268Z,13.65
2024-05-09T07:20:53.210Z,13.69
2024-05-09T07:21:53.163Z,13.72
2024-05-09T07:22:53.212Z,13.75
2024-05-09T07:23:53.186Z,13.79
2024-05-09T07:24:53.134Z,13.81
2024-05-09T07:25:53.139Z,13.85
2024-05-09T07:26:53.090Z,13.89
2024-05-09T07:27:53.094Z,13.92
2024-05-09T07:28:53.113Z,13.96
2024-05-09T07:29:53.070Z,14.00
2024-05-09T07:30:53.087Z,14.05
2024-05-09T07:31:53.060Z,14.09
2024-05-09T07:34:04.920Z,15.32
2024-05-09T07:35:04.885Z,14.91
2024-05-09T07:36:04.854Z,14.66
2024-05-09T07:37:04.828Z,14.53
2024-05-09T07:38:04.873Z,14.46
2024-05-09T07:39:04.818Z,14.44
2024-05-09T07:40:07.393Z,14.45
2024-05-09T07:41:04.809Z,14.48
2024-05-09T07:42:04.777Z,14.51
2024-05-09T07:43:04.818Z,14.55
2024-05-09T07:44:04.798Z,14.60
2024-05-09T07:45:21.460Z,14.65
2024-05-09T07:47:04.475Z,14.71
2024-05-09T07:48:14.420Z,14.78
2024-05-09T07:50:53.369Z,14.93
2024-05-09T07:52:22.570Z,15.00
2024-05-09T07:53:36.273Z,15.21
2024-05-09T07:54:06.445Z,15.27
2024-05-09T07:55:04.827Z,15.33
2024-05-09T07:56:04.743Z,15.39
2024-05-09T07:57:04.733Z,15.44
2024-05-09T07:58:04.727Z,15.49
2024-05-09T07:59:04.643Z,15.54
2024-05-09T08:00:06.024Z,15.57
2024-05-09T08:01:04.784Z,15.60
2024-05-09T08:02:04.722Z,15.63
2024-05-09T08:03:04.581Z,15.67
2024-05-09T08:04:04.606Z,15.70
2024-05-09T08:05:04.708Z,15.73
2024-05-09T08:06:04.531Z,15.77
2024-05-09T08:07:04.538Z,15.81
2024-05-09T08:08:04.870Z,15.85
2024-05-09T08:09:08.136Z,15.89
2024-05-09T08:10:08.105Z,15.93
2024-05-09T08:11:04.493Z,15.98
2024-05-09T08:12:04.447Z,16.04
2024-05-09T08:13:04.565Z,16.11
2024-05-09T08:14:04.516Z,16.18
2024-05-09T08:15:04.420Z,16.23
2024-05-09T08:16:04.485Z,16.27
2024-05-09T08:17:04.421Z,16.30
2024-05-09T08:18:04.595Z,16.32
2024-05-09T08:19:04.492Z,16.34
2024-05-09T08:20:05.587Z,16.36
2024-05-09T08:21:04.358Z,16.40
2024-05-09T08:22:04.385Z,16.49
2024-05-09T08:23:04.330Z,16.61
2024-05-09T08:24:04.344Z,16.72
2024-05-09T08:25:04.323Z,16.82
2024-05-09T08:26:04.292Z,16.88
2024-05-09T08:27:04.281Z,16.93
2024-05-09T08:28:04.368Z,16.95
2024-05-09T08:29:04.294Z,16.97
2024-05-09T08:30:04.908Z,17.00
2024-05-09T08:31:06.887Z,17.04
2024-05-09T08:32:04.352Z,17.08
2024-05-09T08:33:04.722Z,17.11
2024-05-09T08:34:04.391Z,17.14
2024-05-09T08:35:04.273Z,17.16
2024-05-09T08:36:04.188Z,17.19
2024-05-09T08:37:12.871Z,17.20
2024-05-09T08:38:05.318Z,17.20
2024-05-09T08:39:04.206Z,17.21
2024-05-09T08:40:05.263Z,17.21
2024-05-09T08:41:04.184Z,17.20
2024-05-09T08:42:04.148Z,17.19
2024-05-09T08:43:04.222Z,17.19
2024-05-09T08:44:04.116Z,17.20
2024-05-09T08:45:04.076Z,17.22
2024-05-09T08:46:04.128Z,17.24
2024-05-09T08:47:04.127Z,17.25
2024-05-09T08:48:04.157Z,17.26
2024-05-09T08:49:04.240Z,17.26
2024-05-09T08:50:05.204Z,17.29
2024-05-09T08:51:04.033Z,17.34
2024-05-09T08:52:04.045Z,17.41
2024-05-09T08:53:03.995Z,17.46
2024-05-09T08:54:04.032Z,17.49
2024-05-09T08:55:04.012Z,17.51
2024-05-09T08:56:03.969Z,17.53
2024-05-09T08:57:03.946Z,17.56
2024-05-09T08:58:04.088Z,17.60
2024-05-09T08:59:04.026Z,17.62
2024-05-09T09:00:06.441Z,17.64
2024-05-09T09:01:04.996Z,17.65
2024-05-09T09:02:04.085Z,17.65
2024-05-09T09:03:03.958Z,17.66
2024-05-09T09:04:04.084Z,17.68
2024-05-09T09:05:04.011Z,17.70
2024-05-09T09:06:03.899Z,17.73
2024-05-09T09:07:04.039Z,17.78
2024-05-09T09:08:03.869Z,17.84
2024-05-09T09:09:03.861Z,17.91
2024-05-09T09:10:05.566Z,17.98
2024-05-09T09:11:03.818Z,18.02
2024-05-09T09:12:03.922Z,18.06
2024-05-09T09:13:03.926Z,18.10
2024-05-09T09:14:03.781Z,18.14
2024-05-09T09:15:03.845Z,18.18
2024-05-09T09:16:04.115Z,18.23
2024-05-09T09:17:03.778Z,18.30
2024-05-09T09:18:03.864Z,18.35
2024-05-09T09:19:03.923Z,18.41
2024-05-09T09:20:04.514Z,18.46
2024-05-09T09:21:03.742Z,18.52
2024-05-09T09:22:03.732Z,18.57
2024-05-09T09:23:04.235Z,18.62
2024-05-09T09:24:03.669Z,18.67
2024-05-09T09:25:03.735Z,18.70
2024-05-09T09:26:03.664Z,18.74
2024-05-09T09:27:03.630Z,18.78
2024-05-09T09:28:03.699Z,18.81
2024-05-09T09:29:03.625Z,18.84
2024-05-09T09:30:04.515Z,18.86
2024-05-09T09:31:03.716Z,18.87
2024-05-09T09:32:03.585Z,18.86
2024-05-09T09:33:03.791Z,18.85
2024-05-09T09:34:03.704Z,18.84
2024-05-09T09:35:03.599Z,18.85
2024-05-09T09:36:03.546Z,18.85
2024-05-09T09:37:03.685Z,18.87
2024-05-09T09:38:03.547Z,18.90
2024-05-09T09:39:03.524Z,18.94
2024-05-09T09:40:03.850Z,18.95
2024-05-09T09:41:03.515Z,18.97
2024-05-09T09:42:03.482Z,19.00
2024-05-09T09:43:03.474Z,19.03
2024-05-09T09:44:03.478Z,19.06
2024-05-09T09:45:05.560Z,19.09
2024-05-09T09:46:03.510Z,19.14
2024-05-09T09:47:03.480Z,19.18
2024-05-09T09:48:03.478Z,19.21
2024-05-09T09:49:03.543Z,19.25
2024-05-09T09:50:07.061Z,19.27
2024-05-09T09:51:04.394Z,19.30
2024-05-09T09:52:03.412Z,19.33
2024-05-09T09:53:03.365Z,19.33
2024-05-09T09:54:03.418Z,19.31
2024-05-09T09:55:03.446Z,19.27
2024-05-09T09:56:03.364Z,19.25
2024-05-09T09:57:03.352Z,19.24
2024-05-09T09:58:03.433Z,19.25
2024-05-09T09:59:03.311Z,19.26
2024-05-09T10:00:07.414Z,19.28
2024-05-09T10:01:04.378Z,19.31
2024-05-09T10:02:03.442Z,19.34
2024-05-09T10:03:03.333Z,19.36
2024-05-09T10:04:03.477Z,19.35
2024-05-09T10:05:03.451Z,19.35
2024-05-09T10:06:03.264Z,19.33
2024-05-09T10:07:03.275Z,19.31
2024-05-09T10:08:03.206Z,19.27
2024-05-09T10:09:03.267Z,19.24
2024-05-09T10:11:03.284Z,19.21
2024-05-09T10:12:03.312Z,19.21
2024-05-09T10:13:03.232Z,19.21
2024-05-09T10:14:03.164Z,19.22
2024-05-09T10:15:03.148Z,19.24
2024-05-09T10:16:03.304Z,19.27
2024-05-09T10:17:03.140Z,19.30
2024-05-09T10:18:03.357Z,19.33
2024-05-09T10:19:03.242Z,19.35
2024-05-09T10:20:05.473Z,19.35
2024-05-09T10:21:03.057Z,19.34
2024-05-09T10:22:03.134Z,19.32
2024-05-09T10:23:03.049Z,19.30
2024-05-09T10:24:03.054Z,19.27
2024-05-09T10:25:05.130Z,19.25
2024-05-09T10:26:03.614Z,19.22
2024-05-09T10:27:03.014Z,19.19
2024-05-09T10:28:03.050Z,19.15
2024-05-09T10:29:03.020Z,19.11
2024-05-09T10:30:06.852Z,19.08
2024-05-09T10:31:04.042Z,19.05
2024-05-09T10:32:02.963Z,19.03
2024-05-09T10:33:03.178Z,19.02
2024-05-09T10:34:03.619Z,19.01
2024-05-09T10:35:03.096Z,19.01
2024-05-09T10:36:02.907Z,19.02
2024-05-09T10:37:04.960Z,19.03
2024-05-09T10:38:02.892Z,19.04
2024-05-09T10:39:02.899Z,19.07
2024-05-09T10:40:05.444Z,19.12
2024-05-09T10:41:02.914Z,19.18
2024-05-09T10:42:02.932Z,19.24
2024-05-09T10:43:05.811Z,19.30
2024-05-09T10:44:02.830Z,19.36
2024-05-09T10:45:02.828Z,19.39
2024-05-09T10:46:02.925Z,19.40
2024-05-09T10:47:02.865Z,19.37
2024-05-09T10:48:03.082Z,19.33
2024-05-09T10:49:06.196Z,19.26
2024-05-09T10:50:07.793Z,19.17
2024-05-09T10:51:03.746Z,19.08
2024-05-09T10:52:02.862Z,18.99
2024-05-09T10:53:02.733Z,18.92
2024-05-09T10:54:02.738Z,18.88
2024-05-09T10:55:05.486Z,18.86
2024-05-09T10:56:02.694Z,18.86
2024-05-09T10:57:02.712Z,18.88
2024-05-09T10:58:02.721Z,18.92
2024-05-09T10:59:02.674Z,18.96
2024-05-09T11:00:02.718Z,18.99
2024-05-09T11:01:06.254Z,19.03
2024-05-09T11:02:02.986Z,19.08
2024-05-09T11:03:02.684Z,19.11
2024-05-09T11:04:02.843Z,19.12
2024-05-09T11:05:02.755Z,19.12
2024-05-09T11:06:02.669Z,19.10
2024-05-09T11:07:05.299Z,19.08
2024-05-09T11:08:02.608Z,19.04
2024-05-09T11:09:02.547Z,19.01
2024-05-09T11:10:02.751Z,19.00
2024-05-09T11:11:02.551Z,19.00
2024-05-09T11:12:02.565Z,19.02
2024-05-09T11:13:02.550Z,19.03
2024-05-09T11:14:02.511Z,19.04
2024-05-09T11:15:02.500Z,19.05
2024-05-09T11:16:02.673Z,19.04
2024-05-09T11:17:02.549Z,19.05
2024-05-09T11:18:02.552Z,19.05
2024-05-09T11:19:02.604Z,19.07
2024-05-09T11:20:04.452Z,19.08
2024-05-09T11:21:02.467Z,19.09
2024-05-09T11:22:02.438Z,19.10
2024-05-09T11:23:02.430Z,19.11
2024-05-09T11:24:02.419Z,19.12
2024-05-09T11:25:02.454Z,19.13
2024-05-09T11:26:02.376Z,19.13
2024-05-09T11:27:02.388Z,19.15
2024-05-09T11:28:02.425Z,19.17
2024-05-09T11:29:02.369Z,19.20
2024-05-09T11:30:03.122Z,19.22
2024-05-09T11:31:02.362Z,19.23
2024-05-09T11:32:02.432Z,19.22
2024-05-09T11:33:02.378Z,19.21
2024-05-09T11:34:02.343Z,19.22
2024-05-09T11:35:02.280Z,19.25
2024-05-09T11:36:02.303Z,19.28
2024-05-09T11:37:02.305Z,19.30
2024-05-09T11:38:02.242Z,19.31
2024-05-09T11:39:02.475Z,19.32
2024-05-09T11:40:03.268Z,19.32
2024-05-09T11:41:02.218Z,19.31
2024-05-09T11:42:02.221Z,19.31
2024-05-09T11:43:02.259Z,19.31
2024-05-09T11:44:02.204Z,19.30
2024-05-09T11:45:02.182Z,19.29
2024-05-09T11:46:02.258Z,19.27
2024-05-09T11:47:02.153Z,19.25
2024-05-09T11:48:02.374Z,19.22
2024-05-09T11:49:02.378Z,19.21
2024-05-09T11:50:02.333Z,19.21
2024-05-09T11:51:02.133Z,19.20
2024-05-09T11:52:02.159Z,19.19
2024-05-09T11:53:02.072Z,19.18
2024-05-09T11:54:02.147Z,19.17
2024-05-09T11:55:02.145Z,19.18
2024-05-09T11:56:02.153Z,19.18
2024-05-09T11:57:02.051Z,19.19
2024-05-09T11:58:02.133Z,19.19
2024-05-09T11:59:02.033Z,19.20
2024-05-09T12:00:02.329Z,19.22
2024-05-09T12:01:02.349Z,19.25
2024-05-09T12:02:02.107Z,19.29
2024-05-09T12:03:02.001Z,19.31
2024-05-09T12:04:02.311Z,19.32
2024-05-09T12:05:02.110Z,19.33
2024-05-09T12:06:02.128Z,19.33
2024-05-09T12:07:02.041Z,19.33
2024-05-09T12:08:02.263Z,19.34
2024-05-09T12:09:01.996Z,19.37
2024-05-09T12:10:02.051Z,19.41
2024-05-09T12:11:01.994Z,19.44
2024-05-09T12:12:01.937Z,19.48
2024-05-09T12:13:02.114Z,19.52
2024-05-09T12:14:01.915Z,19.56
2024-05-09T12:15:01.865Z,19.61
2024-05-09T12:16:01.978Z,19.64
2024-05-09T12:17:01.888Z,19.67
2024-05-09T12:18:03.889Z,19.69
2024-05-09T12:19:02.010Z,19.71
2024-05-09T12:20:01.796Z,19.73
2024-05-09T12:21:01.914Z,19.73
2024-05-09T12:22:01.802Z,19.72
2024-05-09T12:23:01.772Z,19.71
2024-05-09T12:24:01.760Z,19.68
2024-05-09T12:25:01.776Z,19.65
2024-05-09T12:26:01.777Z,19.62
2024-05-09T12:27:01.730Z,19.58
2024-05-09T12:28:01.965Z,19.54
2024-05-09T12:29:01.722Z,19.51
2024-05-09T12:30:01.709Z,19.48
2024-05-09T12:31:01.694Z,19.44
2024-05-09T12:32:01.704Z,19.41
2024-05-09T12:33:01.764Z,19.37
2024-05-09T12:34:01.793Z,19.35
2024-05-09T12:35:01.640Z,19.34
2024-05-09T12:36:01.649Z,19.33
2024-05-09T12:37:01.682Z,19.33
2024-05-09T12:38:01.637Z,19.32
2024-05-09T12:39:01.666Z,19.31
2024-05-09T12:40:01.612Z,19.29
2024-05-09T12:41:01.595Z,19.29
2024-05-09T12:42:01.564Z,19.30
2024-05-09T12:43:01.650Z,19.32
2024-05-09T12:44:01.542Z,19.33
2024-05-09T12:45:01.590Z,19.34
2024-05-09T12:46:01.628Z,19.35
2024-05-09T12:47:01.523Z,19.35
2024-05-09T12:48:01.715Z,19.36
2024-05-09T12:49:01.697Z,19.39
2024-05-09T12:50:01.546Z,19.43
2024-05-09T12:51:01.478Z,19.48
2024-05-09T12:52:01.483Z,19.54
2024-05-09T12:53:02.373Z,19.62
2024-05-09T12:54:01.463Z,19.69
2024-05-09T12:55:01.530Z,19.73
2024-05-09T12:56:03.126Z,19.77
2024-05-09T12:57:01.428Z,19.78
2024-05-09T12:58:01.472Z,19.79
2024-05-09T12:59:01.382Z,19.78
2024-05-09T13:00:01.712Z,19.76
2024-05-09T13:01:01.472Z,19.75
2024-05-09T13:02:01.608Z,19.73
2024-05-09T13:03:01.696Z,19.71
2024-05-09T13:04:01.618Z,19.68